Time;durP1;ratioP1;P1;durP2;ratioP2;P2;SDS_P1;SDS_P2;PMS_P1;PMS_P2;Temp;Humidity;BMP_temperature;BMP_pressure;BME280_temperature;BME280_humidity;BME280_pressure;Samples;Min_cycle;Max_cycle;Signal;HPM_P1;HPM_P2
2022/01/27 00:03:50;;;;;;;32.35;18.05;;;;;;;3.40;86.82;100939.20;3074303;77;21050;-72
2022/01/27 00:12:08;;;;;;;33.00;21.90;;;;;;;3.47;86.49;100948.54;3073844;77;21011;-72
2022/01/27 00:16:16;;;;;;;30.23;20.20;;;;;;;3.52;86.20;100932.09;3074184;76;20987;-72
2022/01/27 00:20:16;;;;;;;;;;;;;;;3.49;85.77;100942.75;3076961;77;20952;-72
2022/01/27 00:24:18;;;;;;;31.93;19.20;;;;;;;3.62;85.72;100929.09;3074896;76;20143;-71
2022/01/27 00:28:20;;;;;;;43.30;21.82;;;;;;;3.61;85.59;100928.22;3074809;77;21500;-72
2022/01/27 00:32:22;;;;;;;30.48;19.48;;;;;;;3.59;85.86;100929.23;3074359;77;20968;-72
2022/01/27 00:36:23;;;;;;;45.80;22.98;;;;;;;3.59;85.46;100910.34;3074456;77;21012;-72
2022/01/27 00:40:25;;;;;;;26.35;15.13;;;;;;;3.59;85.55;100892.39;3074780;77;21501;-72
2022/01/27 00:44:26;;;;;;;33.45;19.32;;;;;;;3.69;85.62;100902.91;3075005;77;20956;-72
2022/01/27 00:48:28;;;;;;;32.00;21.12;;;;;;;3.74;85.19;100907.97;3075336;77;20999;-72
2022/01/27 00:52:37;;;;;;;33.23;18.45;;;;;;;3.76;85.32;100920.16;3075047;77;20992;-72
2022/01/27 01:00:57;;;;;;;38.92;19.05;;;;;;;3.80;84.84;100911.20;3062169;77;20979;-72
2022/01/27 01:09:56;;;;;;;29.52;16.48;;;;;;;3.88;84.59;100890.26;3017126;76;21006;-72
2022/01/27 01:17:41;;;;;;;26.33;16.70;;;;;;;3.91;84.34;100892.75;3061999;77;21355;-72
2022/01/27 01:21:56;;;;;;;26.45;17.60;;;;;;;3.85;84.29;100888.16;3059676;77;21559;-72
2022/01/27 01:38:20;;;;;;;29.70;16.35;;;;;;;3.71;85.01;100876.93;3062594;77;21500;-72
2022/01/27 01:42:22;;;;;;;30.27;16.20;;;;;;;3.72;85.26;100867.24;3061896;77;20983;-72
2022/01/27 01:46:23;;;;;;;26.20;15.25;;;;;;;3.65;85.43;100853.97;3062258;77;21456;-72
2022/01/27 01:50:25;;;;;;;22.87;14.73;;;;;;;3.63;85.85;100833.45;3062038;77;20998;-72
2022/01/27 01:54:26;;;;;;;27.67;17.48;;;;;;;3.59;85.94;100845.05;3063849;77;20972;-72
2022/01/27 01:58:28;;;;;;;26.07;16.02;;;;;;;3.61;86.03;100851.92;3075218;77;20941;-72
2022/01/27 02:02:29;;;;;;;22.87;16.87;;;;;;;3.66;85.94;100856.55;3074575;77;21476;-72
2022/01/27 02:06:37;;;;;;;28.27;18.17;;;;;;;3.65;85.64;100853.53;3074637;77;21437;-73
2022/01/27 02:18:59;;;;;;;28.92;15.58;;;;;;;3.77;85.34;100854.76;3074756;77;20976;-72
2022/01/27 02:23:06;;;;;;;27.48;15.45;;;;;;;3.79;85.58;100857.30;3074982;77;21006;-72
2022/01/27 02:27:07;;;;;;;24.27;14.78;;;;;;;3.89;85.41;100840.64;3074808;77;20944;-72
2022/01/27 02:31:09;;;;;;;27.42;15.90;;;;;;;3.90;84.89;100831.38;3074422;76;21418;-72
2022/01/27 02:35:11;;;;;;;31.20;15.90;;;;;;;4.00;84.86;100841.02;3075302;77;20960;-72
2022/01/27 02:39:14;;;;;;;24.67;15.98;;;;;;;3.96;84.72;100839.46;3075067;76;20980;-72
2022/01/27 02:43:16;;;;;;;23.40;15.05;;;;;;;3.98;84.72;100832.34;3074927;76;21015;-72
2022/01/27 02:47:19;;;;;;;24.98;16.07;;;;;;;4.00;84.55;100827.86;3075248;77;20956;-73
2022/01/27 02:51:21;;;;;;;24.43;13.13;;;;;;;4.05;84.51;100831.13;3075247;77;20996;-72
2022/01/27 02:55:23;;;;;;;21.60;15.28;;;;;;;4.03;84.45;100827.72;3071650;77;20983;-71
2022/01/27 02:59:24;;;;;;;21.17;14.33;;;;;;;4.04;84.62;100832.05;3062853;77;21022;-72
2022/01/27 03:03:26;;;;;;;17.12;11.88;;;;;;;4.03;84.45;100829.48;3062768;77;21001;-72
2022/01/27 03:07:27;;;;;;;17.25;11.95;;;;;;;3.98;84.75;100833.66;3062758;77;20955;-72
2022/01/27 03:11:48;;;;;;;19.75;11.40;;;;;;;3.86;84.95;100820.59;3062732;77;20935;-72
2022/01/27 03:15:50;;;;;;;24.72;13.65;;;;;;;3.85;85.14;100820.20;3062395;76;21046;-72
2022/01/27 03:19:52;;;;;;;20.30;12.25;;;;;;;3.83;85.50;100809.73;3063084;77;20986;-72
2022/01/27 03:23:53;;;;;;;18.62;10.68;;;;;;;3.84;85.40;100806.18;3062288;77;20907;-72
2022/01/27 03:27:55;;;;;;;22.93;13.10;;;;;;;3.76;85.62;100789.89;3062323;77;20928;-73
2022/01/27 03:31:57;;;;;;;19.52;12.53;;;;;;;3.73;85.68;100783.43;3061937;77;21002;-73
2022/01/27 03:35:58;;;;;;;17.17;12.47;;;;;;;3.70;85.80;100773.05;3061955;77;20991;-72
2022/01/27 03:40:00;;;;;;;18.20;10.45;;;;;;;3.62;85.89;100768.13;3061871;77;20959;-72
2022/01/27 03:44:03;;;;;;;21.55;12.90;;;;;;;3.56;86.06;100765.34;3061403;77;21006;-72
2022/01/27 03:48:05;;;;;;;17.12;9.60;;;;;;;3.64;86.00;100760.18;3062144;77;20963;-72
2022/01/27 03:52:07;;;;;;;15.05;9.08;;;;;;;3.57;85.82;100749.94;3062150;77;20951;-72
2022/01/27 03:56:09;;;;;;;14.58;11.65;;;;;;;3.60;85.71;100746.30;3067658;77;21043;-72
2022/01/27 04:00:12;;;;;;;17.20;10.75;;;;;;;3.60;85.31;100741.52;3075549;77;20967;-72
2022/01/27 04:04:14;;;;;;;16.20;9.70;;;;;;;3.60;85.10;100727.88;3075546;77;20979;-72
2022/01/27 04:08:17;;;;;;;24.60;12.15;;;;;;;3.62;84.94;100735.72;3075966;77;21051;-73
2022/01/27 04:12:18;;;;;;;14.40;8.45;;;;;;;3.70;84.87;100741.47;3075777;76;21027;-73
2022/01/27 04:16:20;;;;;;;12.82;8.10;;;;;;;3.70;84.48;100738.84;3075481;77;21007;-72
2022/01/27 04:20:22;;;;;;;13.20;7.67;;;;;;;3.69;84.27;100730.55;3075681;77;20983;-73
2022/01/27 04:24:24;;;;;;;13.32;8.55;;;;;;;3.75;84.33;100725.03;3075812;77;20957;-72
2022/01/27 04:28:29;;;;;;;11.22;8.73;;;;;;;3.64;84.24;100711.50;3075998;77;20944;-73
2022/01/27 04:32:35;;;;;;;19.95;11.50;;;;;;;3.51;84.54;100704.16;3074871;77;21512;-72
2022/01/27 04:36:34;;;;;;;15.83;9.90;;;;;;;3.45;84.84;100705.77;3074243;76;21047;-73
2022/01/27 04:40:54;;;;;;;11.90;8.45;;;;;;;3.46;85.07;100693.48;3076081;77;20999;-72
2022/01/27 04:44:58;;;;;;;14.23;10.10;;;;;;;3.42;85.23;100696.70;3073185;77;20988;-73
2022/01/27 04:48:59;;;;;;;;;;;;;;;3.47;85.50;100700.45;3076964;77;20949;-73
2022/01/27 04:52:59;;;;;;;10.85;7.45;;;;;;;3.51;85.52;100691.02;3075289;77;20408;-73
2022/01/27 04:57:03;;;;;;;13.68;9.45;;;;;;;3.50;85.21;100681.41;3068241;77;20963;-73
2022/01/27 05:01:05;;;;;;;22.82;11.22;;;;;;;3.53;85.21;100676.01;3062853;77;21003;-73
2022/01/27 05:05:07;;;;;;;10.60;8.43;;;;;;;3.57;84.75;100681.99;3064329;77;20948;-74
2022/01/27 05:09:08;;;;;;;16.20;10.88;;;;;;;3.53;84.40;100668.59;3064370;77;21498;-74
2022/01/27 05:13:16;;;;;;;19.57;11.12;;;;;;;3.50;84.51;100672.21;3064257;77;20994;-75
2022/01/27 05:17:17;;;;;;;19.30;10.65;;;;;;;3.40;84.81;100674.41;3063561;76;20999;-75
2022/01/27 05:21:17;;;;;;;13.93;11.10;;;;;;;3.35;85.02;100668.52;3063465;77;21432;-72
2022/01/27 05:25:18;;;;;;;17.55;11.57;;;;;;;3.28;85.38;100658.73;3063804;77;21081;-74
2022/01/27 05:29:20;;;;;;;19.02;10.28;;;;;;;3.31;85.66;100655.56;3063705;77;20943;-73
2022/01/27 05:33:21;;;;;;;17.35;10.85;;;;;;;3.38;85.61;100649.12;3063440;77;20967;-74
2022/01/27 05:37:23;;;;;;;19.95;8.75;;;;;;;3.40;85.48;100639.38;3063426;77;21006;-74
2022/01/27 05:41:24;;;;;;;19.32;9.78;;;;;;;3.43;85.66;100649.28;3062559;77;21002;-76
2022/01/27 05:45:26;;;;;;;16.80;8.98;;;;;;;3.44;85.85;100664.61;3062585;77;21006;-77
2022/01/27 05:49:27;;;;;;;17.57;9.40;;;;;;;3.50;85.37;100647.22;3063287;77;21026;-80
2022/01/27 05:53:30;;;;;;;13.80;8.88;;;;;;;3.52;85.09;100646.69;3063541;77;20998;-78
2022/01/27 05:57:32;;;;;;;17.30;9.08;;;;;;;3.62;85.08;100637.90;3071794;77;20992;-80
2022/01/27 06:01:33;;;;;;;14.93;9.20;;;;;;;3.60;84.80;100634.97;3077213;77;20964;-80
2022/01/27 06:05:35;;;;;;;15.50;10.28;;;;;;;3.63;84.45;100632.19;3077691;76;20952;-80
2022/01/27 06:09:37;;;;;;;12.45;8.55;;;;;;;3.67;84.10;100636.38;3078266;77;20901;-80
2022/01/27 06:13:39;;;;;;;14.60;10.23;;;;;;;3.71;83.83;100636.61;3076586;77;20944;-80
2022/01/27 06:17:40;;;;;;;12.00;9.08;;;;;;;3.72;83.55;100631.73;3076734;77;21030;-79
2022/01/27 06:21:44;;;;;;;11.45;8.45;;;;;;;3.66;83.32;100623.70;3076983;77;20972;-79
2022/01/27 06:25:45;;;;;;;14.05;9.78;;;;;;;3.67;83.33;100615.33;3076715;76;20956;-80
2022/01/27 06:29:46;;;;;;;12.78;8.75;;;;;;;3.68;83.24;100617.03;3077013;77;20921;-80
2022/01/27 06:33:48;;;;;;;11.85;8.13;;;;;;;3.61;83.65;100615.63;3076642;77;20999;-77
2022/01/27 06:37:50;;;;;;;12.50;9.63;;;;;;;3.52;83.92;100608.55;3076709;77;21003;-79
2022/01/27 06:41:51;;;;;;;13.45;9.58;;;;;;;3.49;84.27;100611.80;3076940;77;21026;-79
2022/01/27 06:45:53;;;;;;;15.30;10.35;;;;;;;3.48;84.38;100612.25;3076887;77;20904;-80
2022/01/27 06:49:54;;;;;;;12.10;8.38;;;;;;;3.44;83.81;100609.38;3076624;77;20995;-80
2022/01/27 06:53:57;;;;;;;15.03;8.98;;;;;;;3.43;84.12;100608.52;3076252;77;20968;-77
2022/01/27 06:57:59;;;;;;;15.83;9.45;;;;;;;3.42;84.16;100602.03;3076515;76;20921;-80
2022/01/27 07:02:01;;;;;;;15.45;10.48;;;;;;;3.47;84.30;100600.03;3076874;77;20971;-79
2022/01/27 07:06:03;;;;;;;13.08;9.93;;;;;;;3.49;83.84;100598.66;3076281;77;20952;-80
2022/01/27 07:10:06;;;;;;;18.70;8.55;;;;;;;3.53;83.60;100595.78;3076648;77;20976;-79
2022/01/27 07:14:08;;;;;;;21.30;10.48;;;;;;;3.56;83.20;100587.77;3076291;77;21058;-78
2022/01/27 07:18:10;;;;;;;17.23;8.90;;;;;;;3.62;82.67;100580.50;3076371;77;20991;-79
2022/01/27 07:22:11;;;;;;;14.70;11.10;;;;;;;3.63;82.24;100576.46;3077025;77;21000;-79
2022/01/27 07:26:14;;;;;;;16.12;8.98;;;;;;;3.62;82.40;100580.02;3076888;77;21019;-79
2022/01/27 07:30:15;;;;;;;15.70;8.68;;;;;;;3.59;81.82;100553.86;3076463;77;20999;-79
2022/01/27 07:34:17;;;;;;;15.85;10.53;;;;;;;3.68;81.38;100541.59;3076516;77;20960;-80
2022/01/27 07:38:19;;;;;;;15.88;10.32;;;;;;;3.67;81.44;100518.84;3076285;77;20999;-77
2022/01/27 07:42:20;;;;;;;19.37;10.85;;;;;;;3.64;81.13;100520.77;3076960;77;20968;-77
2022/01/27 07:46:22;;;;;;;19.42;10.08;;;;;;;3.60;80.79;100516.11;3076400;77;20991;-80
2022/01/27 07:50:28;;;;;;;17.05;9.40;;;;;;;3.63;81.23;100528.27;3076358;76;20992;-79
2022/01/27 07:54:27;;;;;;;22.58;12.07;;;;;;;3.68;81.12;100510.47;3075581;76;21449;-79
2022/01/27 07:58:32;;;;;;;16.37;11.10;;;;;;;3.82;81.12;100515.05;3066846;77;20967;-79
2022/01/27 08:02:34;;;;;;;21.17;11.18;;;;;;;3.81;80.76;100499.73;3063763;77;21006;-77
2022/01/27 08:06:36;;;;;;;16.30;11.05;;;;;;;3.91;80.36;100496.17;3063541;77;21563;-78
2022/01/27 08:10:38;;;;;;;20.10;13.08;;;;;;;3.90;79.63;100495.78;3063532;77;20971;-80
2022/01/27 08:14:40;;;;;;;18.02;10.35;;;;;;;3.94;80.50;100496.49;3063717;77;20955;-78
2022/01/27 08:18:42;;;;;;;11.60;8.05;;;;;;;3.96;79.82;100499.89;3064004;77;21021;-78
2022/01/27 08:22:44;;;;;;;19.48;11.90;;;;;;;4.04;79.03;100484.55;3064008;77;21002;-78
2022/01/27 08:26:48;;;;;;;19.37;11.45;;;;;;;4.07;78.93;100480.92;3064195;77;20955;-78
2022/01/27 08:30:52;;;;;;;18.25;10.03;;;;;;;4.07;78.22;100469.91;3064127;77;20956;-79
2022/01/27 08:34:52;;;;;;;19.12;11.38;;;;;;;4.08;78.69;100466.83;3063703;77;20990;-79
2022/01/27 08:38:54;;;;;;;19.25;10.23;;;;;;;4.13;78.87;100465.66;3064283;77;20955;-78
2022/01/27 08:42:56;;;;;;;10.82;8.45;;;;;;;4.10;78.63;100443.41;3064538;77;20951;-75
2022/01/27 08:46:58;;;;;;;18.48;10.30;;;;;;;4.04;78.87;100433.22;3064258;77;20975;-79
2022/01/27 08:51:01;;;;;;;20.40;10.60;;;;;;;4.06;78.59;100452.41;3064107;77;20967;-79
2022/01/27 08:55:04;;;;;;;20.68;10.88;;;;;;;4.08;78.81;100409.73;3064244;77;20971;-78
2022/01/27 08:59:06;;;;;;;29.10;13.08;;;;;;;4.19;79.10;100416.23;3074737;77;21360;-79
2022/01/27 09:03:08;;;;;;;15.35;11.03;;;;;;;4.23;78.75;100413.81;3077390;77;20979;-78
2022/01/27 09:07:10;;;;;;;18.20;11.12;;;;;;;4.31;78.92;100400.23;3076561;77;21002;-79
2022/01/27 09:11:12;;;;;;;17.65;10.48;;;;;;;4.38;78.56;100398.97;3077063;77;21564;-78
2022/01/27 09:15:14;;;;;;;16.60;10.68;;;;;;;4.39;78.49;100397.58;3076848;77;20980;-79
2022/01/27 09:19:18;;;;;;;17.25;10.03;;;;;;;4.42;78.20;100399.17;3076793;76;21341;-79
2022/01/27 09:23:19;;;;;;;18.87;11.08;;;;;;;4.51;78.76;100382.88;3077269;77;21070;-75
2022/01/27 09:27:21;;;;;;;23.90;13.88;;;;;;;4.61;78.36;100381.91;3077199;77;20964;-79
2022/01/27 09:31:23;;;;;;;15.95;11.83;;;;;;;4.74;78.83;100354.88;3077132;77;20963;-79
2022/01/27 09:35:24;;;;;;;16.35;10.50;;;;;;;4.84;78.58;100341.55;3077190;76;20964;-79
2022/01/27 09:39:26;;;;;;;17.40;11.25;;;;;;;4.94;77.65;100346.69;3076951;77;21047;-78
2022/01/27 09:43:28;;;;;;;20.90;12.55;;;;;;;5.11;77.70;100350.11;3077509;77;21011;-76
2022/01/27 09:47:33;;;;;;;19.10;11.45;;;;;;;5.23;76.93;100359.13;3077413;77;20956;-78
2022/01/27 09:51:44;;;;;;;21.27;12.78;;;;;;;5.22;76.80;100362.22;3077129;76;20917;-79
2022/01/27 09:55:40;;;;;;;19.95;11.38;;;;;;;5.29;76.89;100360.08;3074908;77;20940;-78
2022/01/27 09:59:43;;;;;;;20.48;14.15;;;;;;;5.28;77.23;100353.94;3077215;77;20965;-79
2022/01/27 10:04:00;;;;;;;21.97;12.47;;;;;;;5.25;77.67;100359.88;3077602;77;21050;-78
2022/01/27 10:08:11;;;;;;;25.20;13.08;;;;;;;5.24;77.91;100355.55;3077478;77;20983;-78
2022/01/27 10:12:12;;;;;;;19.35;12.63;;;;;;;5.11;78.08;100345.70;3077157;77;20968;-79
2022/01/27 10:16:36;;;;;;;20.43;12.63;;;;;;;5.04;77.92;100348.78;3077090;77;20947;-79
2022/01/27 10:20:41;;;;;;;18.40;11.78;;;;;;;5.07;78.88;100343.33;3076720;77;21019;-78
2022/01/27 10:24:42;;;;;;;;;;;;;;;5.07;78.71;100345.51;3079771;77;20952;-79
2022/01/27 10:28:51;;;;;;;19.15;12.13;;;;;;;4.97;79.15;100339.92;3077413;77;20103;-79
2022/01/27 10:32:59;;;;;;;28.75;15.35;;;;;;;4.87;78.90;100303.15;3076801;77;21034;-77
2022/01/27 10:37:00;;;;;;;19.92;12.10;;;;;;;4.89;79.55;100313.12;3076998;77;21023;-79
2022/01/27 10:41:07;;;;;;;19.67;13.60;;;;;;;4.93;78.95;100300.63;3077903;77;23317;-78
2022/01/27 10:45:14;;;;;;;17.85;12.15;;;;;;;5.05;79.33;100289.38;3078563;77;20978;-77
2022/01/27 10:49:24;;;;;;;21.33;12.13;;;;;;;5.10;79.77;100286.45;3076277;77;20988;-78
2022/01/27 10:53:19;;;;;;;14.95;10.60;;;;;;;5.18;80.48;100273.68;3075190;77;20964;-79
2022/01/27 10:57:24;;;;;;;17.73;12.78;;;;;;;5.34;79.87;100243.75;3073523;77;21002;-79
2022/01/27 11:01:33;;;;;;;24.00;13.45;;;;;;;5.35;78.96;100250.72;3063664;77;21010;-78
2022/01/27 11:05:42;;;;;;;19.98;13.60;;;;;;;5.30;79.24;100243.08;3064066;77;21491;-79
2022/01/27 11:09:44;;;;;;;19.90;13.38;;;;;;;5.25;79.26;100230.65;3064079;77;20948;-77
2022/01/27 11:13:47;;;;;;;25.75;12.20;;;;;;;5.23;79.70;100245.23;3064718;77;20947;-77
2022/01/27 11:17:50;;;;;;;21.52;12.50;;;;;;;5.19;79.56;100229.68;3063738;77;21451;-79
2022/01/27 11:22:02;;;;;;;19.02;13.50;;;;;;;5.17;79.28;100223.66;3064117;77;21049;-78
2022/01/27 11:26:00;;;;;;;17.98;11.75;;;;;;;5.21;79.74;100211.52;3062803;77;20995;-79
2022/01/27 11:30:15;;;;;;;19.62;11.35;;;;;;;5.06;78.85;100202.75;3064009;77;21464;-79
2022/01/27 11:34:17;;;;;;;16.95;11.85;;;;;;;5.07;79.82;100188.63;3063990;76;21594;-75
2022/01/27 11:38:24;;;;;;;18.90;11.97;;;;;;;5.02;79.04;100190.70;3063872;77;20983;-79
2022/01/27 11:42:52;;;;;;;18.35;12.90;;;;;;;5.02;78.58;100199.06;3064075;77;21018;-79
2022/01/27 11:47:17;;;;;;;20.88;13.03;;;;;;;5.06;78.12;100195.30;3063856;77;20983;-78
2022/01/27 11:51:17;;;;;;;17.05;10.43;;;;;;;5.05;78.53;100201.52;3063429;77;20959;-79
2022/01/27 11:55:27;;;;;;;25.60;13.70;;;;;;;5.00;78.58;100189.91;3064104;77;20991;-78
2022/01/27 11:59:38;;;;;;;13.38;10.75;;;;;;;4.86;79.59;100191.61;3064283;77;21381;-74
2022/01/27 12:03:56;;;;;;;22.85;14.10;;;;;;;4.86;80.16;100198.66;3064690;77;21037;-78
2022/01/27 12:08:20;;;;;;;22.70;12.60;;;;;;;4.79;79.98;100174.45;3063091;77;20991;-78
2022/01/27 12:12:32;;;;;;;18.50;12.78;;;;;;;4.82;80.25;100163.75;3064469;77;20978;-79
2022/01/27 12:20:44;;;;;;;19.02;11.63;;;;;;;4.84;80.57;100136.83;3064503;77;21042;-79
2022/01/27 12:24:57;;;;;;;17.92;11.38;;;;;;;4.91;80.29;100141.72;3064903;77;21487;-77
2022/01/27 12:29:00;;;;;;;22.35;12.15;;;;;;;4.89;80.25;100142.28;3058725;77;20983;-79
2022/01/27 12:33:02;;;;;;;20.27;14.45;;;;;;;4.92;80.64;100135.50;3064096;77;20983;-79
2022/01/27 12:37:07;;;;;;;18.80;12.90;;;;;;;4.93;81.78;100113.02;3064614;77;20982;-79
2022/01/27 12:41:09;;;;;;;15.90;10.28;;;;;;;4.86;82.53;100104.63;3064499;77;20986;-79
2022/01/27 12:45:14;;;;;;;22.87;12.65;;;;;;;4.90;82.82;100096.05;3064602;77;21232;-77
2022/01/27 12:49:21;;;;;;;18.95;11.93;;;;;;;4.90;82.73;100106.59;3064793;77;21003;-79
2022/01/27 12:53:23;;;;;;;18.23;13.83;;;;;;;4.84;83.28;100093.80;3057530;77;20967;-79
2022/01/27 12:57:30;;;;;;;19.70;12.60;;;;;;;4.74;85.50;100105.85;3065859;77;21038;-78
2022/01/27 13:01:35;;;;;;;15.70;11.03;;;;;;;4.77;86.05;100091.16;3077007;77;20987;-78
2022/01/27 13:05:50;;;;;;;16.62;12.07;;;;;;;4.68;86.09;100074.95;3076789;76;20972;-79
2022/01/27 13:10:04;;;;;;;15.90;10.63;;;;;;;4.66;86.52;100095.28;3077123;77;21011;-78
2022/01/27 13:14:08;;;;;;;13.83;11.68;;;;;;;4.71;87.02;100076.57;3077315;77;21007;-79
2022/01/27 13:18:18;;;;;;;21.55;12.58;;;;;;;4.70;86.60;100087.56;3076963;77;21038;-77
2022/01/27 13:22:25;;;;;;;17.05;11.40;;;;;;;4.66;87.55;100070.25;3076285;77;20999;-77
2022/01/27 13:26:20;;;;;;;14.55;11.78;;;;;;;4.65;87.94;100067.24;3074467;77;21259;-78
2022/01/27 13:30:21;;;;;;;18.60;13.32;;;;;;;4.66;88.46;100075.52;3076764;76;20979;-75
2022/01/27 13:34:23;;;;;;;21.60;13.98;;;;;;;4.52;89.10;100073.73;3076818;77;21518;-78
2022/01/27 13:38:30;;;;;;;23.95;13.78;;;;;;;4.55;89.71;100073.54;3076469;77;20992;-78
2022/01/27 13:42:31;;;;;;;;;;;;;;;4.56;90.83;100064.70;3079127;77;21493;-78
2022/01/27 13:46:55;;;;;;;22.42;15.40;;;;;;;4.53;90.65;100055.66;3076973;77;20111;-78
2022/01/27 13:51:00;;;;;;;17.62;14.35;;;;;;;4.63;91.05;100074.88;3077134;76;20980;-78
2022/01/27 13:55:09;;;;;;;19.73;13.93;;;;;;;4.50;89.88;100054.98;3077332;77;20936;-77
2022/01/27 13:59:15;;;;;;;22.05;14.45;;;;;;;4.66;90.24;100053.13;3070298;77;21057;-77
2022/01/27 14:03:17;;;;;;;17.17;11.43;;;;;;;4.65;90.25;100067.73;3063886;77;20920;-79
2022/01/27 14:07:34;;;;;;;16.07;10.75;;;;;;;4.78;89.84;100050.70;3062355;77;20994;-80
2022/01/27 14:11:41;;;;;;;18.23;10.13;;;;;;;4.96;88.62;100037.70;3060623;77;21009;-78
2022/01/27 14:15:45;;;;;;;15.78;11.35;;;;;;;5.12;88.04;100055.20;3034700;76;21018;-75
2022/01/27 14:19:48;;;;;;;12.23;8.33;;;;;;;5.22;87.11;100040.96;3058121;77;21026;-76
2022/01/27 14:27:53;;;;;;;18.15;10.18;;;;;;;5.43;87.14;100051.91;3039469;77;20987;-77
2022/01/27 14:31:55;;;;;;;15.90;10.43;;;;;;;5.43;86.34;100055.87;3084350;76;20948;-74
2022/01/27 14:35:57;;;;;;;16.32;10.55;;;;;;;5.46;86.13;100053.03;3122044;76;20955;-73
2022/01/27 14:39:58;;;;;;;14.25;9.55;;;;;;;5.20;86.59;100040.18;3122053;76;20962;-72
2022/01/27 14:44:00;;;;;;;20.45;10.88;;;;;;;5.06;87.66;100034.47;3121988;76;20991;-73
2022/01/27 14:48:03;;;;;;;12.88;9.13;;;;;;;4.92;88.36;100041.47;3122192;76;20973;-73
2022/01/27 14:52:10;;;;;;;19.12;10.32;;;;;;;4.86;88.91;100049.28;3121947;76;20956;-74
2022/01/27 14:56:09;;;;;;;11.80;8.68;;;;;;;4.80;89.31;100072.04;3096396;76;20940;-73
2022/01/27 15:00:15;;;;;;;13.50;8.50;;;;;;;4.77;90.24;100052.95;3064538;77;20975;-73
2022/01/27 15:04:16;;;;;;;14.75;9.55;;;;;;;4.80;90.52;100021.97;3064915;77;20970;-74
2022/01/27 15:08:18;;;;;;;13.88;8.45;;;;;;;4.76;90.58;100057.36;3065176;77;20984;-73
2022/01/27 15:12:20;;;;;;;13.68;8.68;;;;;;;4.76;90.33;100026.23;3065009;77;21006;-73
2022/01/27 15:20:37;;;;;;;12.28;8.63;;;;;;;4.83;90.32;100038.08;3065747;77;20916;-73
2022/01/27 15:24:41;;;;;;;13.43;9.63;;;;;;;4.88;89.75;100033.84;3065101;77;21010;-73
2022/01/27 15:28:43;;;;;;;14.58;9.85;;;;;;;4.87;89.79;100036.94;3064981;77;20955;-72
2022/01/27 15:32:45;;;;;;;9.28;7.60;;;;;;;4.92;89.31;100036.66;3065014;77;20932;-73
2022/01/27 15:36:47;;;;;;;10.55;8.98;;;;;;;4.94;89.32;100026.41;3064709;77;20978;-75
2022/01/27 15:40:49;;;;;;;10.85;6.20;;;;;;;4.96;89.10;100024.52;3064702;77;21003;-74
2022/01/27 15:44:51;;;;;;;10.50;7.45;;;;;;;5.00;89.22;100019.42;3064913;77;21002;-73
2022/01/27 15:48:53;;;;;;;9.85;7.72;;;;;;;4.96;89.08;100032.88;3064981;77;20951;-73
2022/01/27 15:52:55;;;;;;;9.80;8.75;;;;;;;5.03;89.16;100021.48;3064899;77;21021;-73
2022/01/27 15:56:57;;;;;;;17.65;8.00;;;;;;;5.05;89.51;100011.69;3064857;77;20991;-73
2022/01/27 16:00:58;;;;;;;11.48;8.73;;;;;;;5.07;89.18;100017.70;3064211;77;21022;-73
2022/01/27 16:05:00;;;;;;;9.93;7.53;;;;;;;5.06;89.51;100015.55;3064982;77;21617;-73
2022/01/27 16:09:01;;;;;;;8.58;6.58;;;;;;;5.05;89.30;100009.91;3064954;77;21101;-73
2022/01/27 16:13:03;;;;;;;11.78;7.58;;;;;;;5.13;89.79;100004.16;3065243;77;20963;-73
2022/01/27 16:17:05;;;;;;;13.43;7.97;;;;;;;5.11;89.50;100008.65;3064705;77;21503;-73
2022/01/27 16:21:06;;;;;;;10.85;8.00;;;;;;;5.10;89.62;100000.37;3037030;77;20936;-73
2022/01/27 16:25:10;;;;;;;11.12;7.95;;;;;;;5.07;89.57;100010.66;3064792;77;21005;-73
2022/01/27 16:29:11;;;;;;;12.25;7.45;;;;;;;5.06;89.69;100022.14;3065199;77;20967;-72
2022/01/27 16:33:14;;;;;;;9.88;7.08;;;;;;;5.10;89.87;100012.23;3065305;77;20963;-73
2022/01/27 16:37:21;;;;;;;11.03;7.60;;;;;;;5.15;89.89;100016.77;3064991;77;20959;-74
2022/01/27 16:41:23;;;;;;;14.50;9.78;;;;;;;5.12;89.95;100023.06;3065050;77;20975;-74
2022/01/27 16:45:24;;;;;;;11.95;8.40;;;;;;;5.17;89.97;100017.97;3064794;77;21002;-74
2022/01/27 16:49:26;;;;;;;9.88;7.95;;;;;;;5.17;89.91;100019.28;3065054;77;21254;-74
2022/01/27 16:53:28;;;;;;;7.42;6.40;;;;;;;5.18;89.83;100000.74;3065072;77;20946;-73
2022/01/27 16:57:30;;;;;;;9.75;8.05;;;;;;;5.15;89.77;99986.44;3064868;77;21429;-73
2022/01/27 17:01:31;;;;;;;13.50;8.75;;;;;;;5.32;89.42;100000.34;3070478;77;20916;-71
2022/01/27 17:05:34;;;;;;;14.40;9.20;;;;;;;5.44;89.00;100006.12;3072991;77;20964;-72
2022/01/27 17:09:36;;;;;;;15.70;9.58;;;;;;;5.55;88.59;99995.72;3073931;77;20991;-71
2022/01/27 17:13:38;;;;;;;12.07;9.73;;;;;;;5.60;88.41;99996.75;3074296;77;21051;-70
2022/01/27 17:17:44;;;;;;;8.03;7.12;;;;;;;5.66;88.52;100008.67;3073140;77;20980;-71
2022/01/27 17:21:42;;;;;;;11.20;8.03;;;;;;;5.71;88.54;99996.87;3072252;77;20920;-71
2022/01/27 17:25:44;;;;;;;10.35;7.90;;;;;;;5.74;88.63;99995.83;3068126;77;21046;-71
2022/01/27 17:29:46;;;;;;;10.03;7.17;;;;;;;5.88;88.40;99990.95;3046856;78;21010;-73
2022/01/27 17:33:48;;;;;;;11.05;8.45;;;;;;;5.85;88.36;99986.70;3046217;78;20987;-72
2022/01/27 17:37:50;;;;;;;9.88;7.70;;;;;;;5.86;88.49;99983.61;3047109;78;21503;-72
2022/01/27 17:41:52;;;;;;;11.80;7.78;;;;;;;5.85;88.43;99964.27;3045434;78;20963;-72
2022/01/27 17:45:54;;;;;;;12.93;9.00;;;;;;;5.92;88.40;99970.47;3046567;77;21035;-70
2022/01/27 17:49:56;;;;;;;11.20;8.45;;;;;;;5.95;88.16;99981.66;3046024;78;21022;-71
2022/01/27 17:53:58;;;;;;;10.68;6.50;;;;;;;6.10;87.79;99978.50;3046095;78;21007;-71
2022/01/27 17:58:00;;;;;;;9.75;7.50;;;;;;;6.03;87.60;99966.64;3067243;76;20941;-71
2022/01/27 18:02:01;;;;;;;10.32;6.92;;;;;;;6.08;87.32;99955.78;3061012;77;21073;-71
2022/01/27 18:06:03;;;;;;;8.80;5.95;;;;;;;6.16;87.21;99957.89;3061125;77;20939;-72
2022/01/27 18:10:07;;;;;;;10.23;6.95;;;;;;;6.14;86.90;99948.28;3061290;77;20970;-72
2022/01/27 18:14:11;;;;;;;8.88;5.47;;;;;;;6.22;86.74;99945.58;3061676;77;20979;-72
2022/01/27 18:18:13;;;;;;;8.25;6.80;;;;;;;6.19;86.96;99937.87;3061642;77;20959;-71
2022/01/27 18:22:14;;;;;;;8.23;6.47;;;;;;;6.10;86.54;99920.86;3061506;77;21037;-72
2022/01/27 18:26:17;;;;;;;7.33;6.58;;;;;;;6.12;86.83;99914.53;3061847;77;21598;-70
2022/01/27 18:30:18;;;;;;;7.92;6.62;;;;;;;6.13;87.45;99908.30;3061184;77;20963;-70
2022/01/27 18:34:20;;;;;;;10.20;7.85;;;;;;;6.09;87.48;99905.52;3061146;77;21625;-71
2022/01/27 18:38:21;;;;;;;9.65;6.83;;;;;;;6.10;87.48;99907.20;3060820;77;21029;-70
2022/01/27 18:42:23;;;;;;;11.08;5.55;;;;;;;6.11;87.39;99894.36;3061179;77;21003;-72
2022/01/27 18:46:25;;;;;;;8.93;6.62;;;;;;;6.07;87.19;99884.94;3061660;77;20947;-72
2022/01/27 18:50:28;;;;;;;8.80;7.05;;;;;;;6.06;86.93;99885.89;3061209;77;20975;-70
2022/01/27 18:54:29;;;;;;;7.40;6.20;;;;;;;6.10;86.75;99891.35;3061553;77;20951;-70
2022/01/27 18:58:31;;;;;;;12.47;8.38;;;;;;;6.17;86.56;99884.31;3012851;77;20982;-70
2022/01/27 19:02:32;;;;;;;7.95;6.37;;;;;;;6.19;86.31;99885.05;3052386;78;21431;-69
2022/01/27 19:06:34;;;;;;;7.90;4.80;;;;;;;6.31;85.90;99885.98;3052566;78;21022;-69
2022/01/27 19:10:36;;;;;;;10.30;5.80;;;;;;;6.30;85.61;99886.47;3052191;78;21026;-70
2022/01/27 19:14:38;;;;;;;9.18;6.12;;;;;;;6.33;85.36;99873.50;3051622;77;20971;-70
2022/01/27 19:18:40;;;;;;;9.78;5.37;;;;;;;6.31;85.21;99889.48;3051422;78;21065;-72
2022/01/27 19:22:42;;;;;;;6.92;5.45;;;;;;;6.32;85.07;99895.13;3051905;77;21203;-70
2022/01/27 19:26:49;;;;;;;8.48;5.40;;;;;;;6.20;85.34;99877.49;3051486;76;21026;-70
2022/01/27 19:30:47;;;;;;;9.20;4.95;;;;;;;6.14;85.42;99859.81;3062872;77;20889;-70
2022/01/27 19:34:50;;;;;;;8.35;5.83;;;;;;;6.09;85.37;99859.30;3082548;77;20991;-71
2022/01/27 19:38:53;;;;;;;7.92;5.75;;;;;;;5.99;85.60;99855.11;3082760;77;20944;-69
2022/01/27 19:42:56;;;;;;;6.72;4.87;;;;;;;5.89;86.21;99850.54;3082672;77;21376;-70